createdAt,value
2022-09-28T00:02:57.455Z,45.20
2022-09-28T00:08:02.534Z,45.10
2022-09-28T00:13:06.954Z,45.10
2022-09-28T00:18:10.175Z,45.10
2022-09-28T00:23:14.734Z,45.10
2022-09-28T00:28:18.257Z,45.10
2022-09-28T00:33:21.464Z,45.20
2022-09-28T00:38:29.486Z,45.20
2022-09-28T00:43:32.692Z,45.20
2022-09-28T00:48:39.726Z,45.20
2022-09-28T00:53:45.500Z,45.30
2022-09-28T00:58:51.451Z,45.30
2022-09-28T01:03:54.857Z,45.30
2022-09-28T01:09:03.040Z,45.40
2022-09-28T01:14:10.350Z,45.40
2022-09-28T01:19:30.210Z,45.40
2022-09-28T01:24:43.680Z,45.50
2022-09-28T01:29:56.498Z,45.40
2022-09-28T01:35:04.569Z,45.50
2022-09-28T01:40:10.586Z,45.50
2022-09-28T01:45:21.398Z,45.60
2022-09-28T01:50:26.998Z,45.60
2022-09-28T01:55:33.469Z,45.60
2022-09-28T02:00:42.170Z,45.60
2022-09-28T02:05:53.469Z,45.60
2022-09-28T02:11:02.941Z,45.60
2022-09-28T02:16:15.494Z,45.60
2022-09-28T02:21:24.959Z,45.70
2022-09-28T02:26:32.872Z,45.60
2022-09-28T02:31:37.730Z,45.70
2022-09-28T02:36:41.440Z,45.70
2022-09-28T02:41:56.014Z,45.70
2022-09-28T02:47:05.547Z,45.80
2022-09-28T02:52:30.077Z,45.80
2022-09-28T02:57:48.188Z,45.90
2022-09-28T03:03:05.330Z,46.00
2022-09-28T03:08:21.592Z,46.10
2022-09-28T03:13:26.782Z,46.00
2022-09-28T03:18:33.253Z,45.90
2022-09-28T03:23:36.496Z,46.00
2022-09-28T03:28:40.036Z,46.00
2022-09-28T03:33:47.436Z,46.00
2022-09-28T03:38:53.305Z,46.00
2022-09-28T03:43:56.721Z,46.70
2022-09-28T03:49:03.825Z,46.00
2022-09-28T03:54:07.105Z,46.10
2022-09-28T03:59:10.341Z,46.20
2022-09-28T04:04:15.660Z,46.20
2022-09-28T04:09:19.002Z,46.40
2022-09-28T04:14:22.256Z,46.40
2022-09-28T04:19:27.850Z,46.30
2022-09-28T04:24:59.977Z,46.20
2022-09-28T04:30:03.337Z,46.20
2022-09-28T04:35:12.542Z,46.20
2022-09-28T04:40:15.859Z,46.50
2022-09-28T04:45:19.818Z,46.40
2022-09-28T04:50:24.935Z,46.90
2022-09-28T04:55:59.874Z,46.60
2022-09-28T05:01:06.005Z,46.40
2022-09-28T05:06:37.423Z,46.30
2022-09-28T05:11:44.237Z,46.30
2022-09-28T05:16:53.195Z,46.30
2022-09-28T05:22:04.803Z,46.20
2022-09-28T05:27:14.475Z,46.20
2022-09-28T05:32:18.063Z,46.20
2022-09-28T05:37:33.863Z,46.20
2022-09-28T05:42:37.214Z,46.10
2022-09-28T05:47:42.362Z,46.10
2022-09-28T05:52:47.619Z,46.20
2022-09-28T05:57:51.065Z,46.10
2022-09-28T06:03:00.084Z,46.10
2022-09-28T06:08:06.754Z,45.90
2022-09-28T06:13:12.127Z,45.90
2022-09-28T06:18:16.417Z,45.90
2022-09-28T06:23:43.623Z,46.00
2022-09-28T06:28:50.316Z,45.90
2022-09-28T06:33:54.366Z,46.00
2022-09-28T06:38:59.023Z,45.90
2022-09-28T06:44:03.850Z,45.90
2022-09-28T06:49:30.324Z,45.80
2022-09-28T06:54:54.147Z,45.70
2022-09-28T06:59:59.665Z,45.50
2022-09-28T07:05:03.777Z,45.60
2022-09-28T07:10:42.306Z,45.50
2022-09-28T07:16:16.499Z,45.40
2022-09-28T07:21:28.770Z,45.50
2022-09-28T07:26:36.755Z,45.50
2022-09-28T07:32:18.413Z,45.60
2022-09-28T07:37:34.783Z,45.80
2022-09-28T07:42:39.743Z,45.90
2022-09-28T07:47:43.571Z,45.90
2022-09-28T07:53:04.036Z,46.00
2022-09-28T07:58:19.456Z,46.10
2022-09-28T08:03:56.431Z,46.20
2022-09-28T08:09:01.870Z,46.30
2022-09-28T08:14:24.765Z,46.50
2022-09-28T08:19:52.299Z,46.70
2022-09-28T08:24:55.985Z,46.90
2022-09-28T08:30:00.708Z,47.00
2022-09-28T08:35:21.070Z,47.10
2022-09-28T08:40:55.630Z,47.00
2022-09-28T08:46:15.955Z,46.90
2022-09-28T08:51:56.259Z,46.90
2022-09-28T08:57:13.762Z,46.80
2022-09-28T09:02:24.114Z,46.70
2022-09-28T09:07:51.909Z,46.40
2022-09-28T09:13:08.068Z,46.20
2022-09-28T09:18:24.930Z,46.10
2022-09-28T09:23:56.034Z,46.10
2022-09-28T09:29:12.373Z,46.20
2022-09-28T09:34:35.424Z,46.00
2022-09-28T09:40:11.011Z,45.80
2022-09-28T09:45:55.671Z,45.50
2022-09-28T09:51:39.510Z,45.60
2022-09-28T09:56:48.182Z,45.20
2022-09-28T10:02:23.276Z,45.40
2022-09-28T10:07:43.661Z,45.50
2022-09-28T10:12:49.513Z,45.50
2022-09-28T10:17:54.158Z,45.80
2022-09-28T10:23:23.868Z,45.40
2022-09-28T10:28:35.006Z,44.50
2022-09-28T10:33:39.908Z,44.00
2022-09-28T10:38:50.080Z,44.20
2022-09-28T10:44:08.913Z,43.30
2022-09-28T10:49:24.262Z,43.30
2022-09-28T10:54:34.830Z,43.10
2022-09-28T10:59:41.675Z,42.60
2022-09-28T11:05:01.127Z,42.50
2022-09-28T11:10:21.597Z,43.60
2022-09-28T11:15:29.779Z,41.70
2022-09-28T11:20:36.086Z,42.30
2022-09-28T11:25:43.787Z,42.30
2022-09-28T11:30:49.755Z,42.10
2022-09-28T11:36:30.298Z,41.80
2022-09-28T11:41:49.584Z,40.40
2022-09-28T11:47:05.933Z,40.60
2022-09-28T11:52:15.716Z,41.00
2022-09-28T11:57:25.678Z,40.90
2022-09-28T12:02:35.717Z,40.80
2022-09-28T12:07:47.247Z,40.60
2022-09-28T12:13:15.996Z,40.80
2022-09-28T12:18:25.714Z,40.90
2022-09-28T12:23:35.841Z,40.00
2022-09-28T12:28:44.401Z,40.20
2022-09-28T12:33:50.367Z,40.00
2022-09-28T12:39:18.948Z,40.00
2022-09-28T12:44:41.622Z,39.20
2022-09-28T12:55:44.510Z,39.20
2022-09-28T13:01:02.367Z,39.30
2022-09-28T13:06:38.590Z,39.30
2022-09-28T13:11:51.979Z,39.20
2022-09-28T13:17:01.980Z,39.60
2022-09-28T13:22:18.905Z,39.20
2022-09-28T13:27:30.074Z,39.00
2022-09-28T13:32:37.313Z,38.80
2022-09-28T13:37:40.958Z,38.90
2022-09-28T13:43:08.381Z,38.80
2022-09-28T13:48:39.198Z,38.00
2022-09-28T13:54:23.994Z,37.90
2022-09-28T13:59:30.140Z,37.80
2022-09-28T14:04:59.270Z,38.30
2022-09-28T14:10:20.510Z,37.30
2022-09-28T14:15:46.357Z,37.20
2022-09-28T14:21:01.316Z,37.30
2022-09-28T14:26:31.731Z,37.30
2022-09-28T14:31:35.478Z,37.20
2022-09-28T14:37:06.596Z,37.70
2022-09-28T14:42:16.795Z,37.00
2022-09-28T14:47:34.563Z,37.30
2022-09-28T14:52:46.276Z,36.60
2022-09-28T14:57:54.403Z,36.60
2022-09-28T15:03:02.433Z,36.60
2022-09-28T15:08:08.095Z,38.00
2022-09-28T15:13:20.915Z,36.80
2022-09-28T15:18:59.841Z,37.50
2022-09-28T15:24:24.485Z,36.70
2022-09-28T15:29:31.717Z,37.10
2022-09-28T15:34:57.403Z,37.30
2022-09-28T15:40:02.983Z,37.00
2022-09-28T15:45:26.518Z,36.90
2022-09-28T15:50:33.646Z,36.40
2022-09-28T15:55:43.575Z,37.10
2022-09-28T16:00:48.173Z,36.70
2022-09-28T16:05:53.938Z,37.00
2022-09-28T16:11:10.938Z,37.10
2022-09-28T16:16:17.907Z,36.80
2022-09-28T16:21:30.032Z,37.20
2022-09-28T16:26:37.431Z,37.10
2022-09-28T16:31:43.835Z,37.20
2022-09-28T16:36:49.039Z,37.30
2022-09-28T16:41:57.364Z,37.20
2022-09-28T16:47:01.627Z,36.90
2022-09-28T16:52:04.792Z,37.10
2022-09-28T16:57:12.472Z,37.10
2022-09-28T17:02:45.303Z,37.00
2022-09-28T17:07:44.630Z,37.20
2022-09-28T17:12:49.330Z,37.40
2022-09-28T17:17:52.696Z,37.40
2022-09-28T17:22:56.052Z,37.40
2022-09-28T17:28:00.713Z,37.50
2022-09-28T17:33:04.088Z,37.60
2022-09-28T17:38:07.519Z,37.70
2022-09-28T17:43:12.529Z,37.70
2022-09-28T17:48:17.542Z,37.70
2022-09-28T17:53:21.067Z,37.80
2022-09-28T17:58:25.823Z,37.90
2022-09-28T18:03:29.541Z,38.00
2022-09-28T18:08:33.328Z,38.20
2022-09-28T18:13:38.503Z,38.30
2022-09-28T18:18:41.885Z,38.40
2022-09-28T18:23:45.263Z,38.60
2022-09-28T18:28:50.060Z,38.60
2022-09-28T18:34:00.028Z,38.70
2022-09-28T18:39:05.833Z,38.90
2022-09-28T18:44:11.387Z,38.90
2022-09-28T18:49:15.003Z,39.70
2022-09-28T18:54:18.880Z,39.10
2022-09-28T18:59:27.134Z,39.20
2022-09-28T19:04:31.206Z,39.40
2022-09-28T19:09:34.805Z,39.40
2022-09-28T19:14:39.583Z,39.60
2022-09-28T19:19:43.044Z,39.70
2022-09-28T19:24:46.447Z,39.70
2022-09-28T19:29:51.263Z,39.80
2022-09-28T19:34:54.866Z,40.00
2022-09-28T19:39:58.139Z,40.00
2022-09-28T19:45:02.840Z,40.10
2022-09-28T19:50:07.599Z,40.20
2022-09-28T19:55:11.010Z,40.10
2022-09-28T20:00:16.924Z,40.10
2022-09-28T20:05:22.763Z,40.20
2022-09-28T20:10:26.110Z,40.30
2022-09-28T20:15:31.880Z,40.20
2022-09-28T20:20:35.217Z,40.10
2022-09-28T20:25:39.438Z,40.10
2022-09-28T20:30:44.144Z,40.10
2022-09-28T20:35:47.543Z,40.30
2022-09-28T20:40:51.428Z,40.40
2022-09-28T20:45:57.016Z,40.50
2022-09-28T20:51:03.034Z,40.60
2022-09-28T20:56:08.420Z,40.70
2022-09-28T21:01:16.288Z,40.90
2022-09-28T21:06:21.929Z,41.00
2022-09-28T21:11:27.377Z,41.20
2022-09-28T21:16:33.811Z,41.40
2022-09-28T21:21:37.187Z,41.60
2022-09-28T21:26:40.609Z,41.70
2022-09-28T21:31:46.816Z,41.90
2022-09-28T21:36:52.698Z,42.10
2022-09-28T21:41:55.906Z,42.10
2022-09-28T21:47:00.516Z,42.20
2022-09-28T21:52:04.059Z,42.40
2022-09-28T21:57:08.930Z,42.30
2022-09-28T22:02:13.649Z,42.40
2022-09-28T22:07:16.944Z,42.50
2022-09-28T22:12:20.173Z,42.60
2022-09-28T22:17:24.837Z,42.70
2022-09-28T22:22:29.309Z,42.70
2022-09-28T22:27:33.001Z,42.50
2022-09-28T22:32:37.653Z,42.50
2022-09-28T22:37:41.215Z,42.60
2022-09-28T22:42:44.554Z,42.60
2022-09-28T22:47:49.615Z,42.60
2022-09-28T22:52:53.473Z,42.70
2022-09-28T22:57:57.236Z,42.60
2022-09-28T23:03:01.960Z,42.60
2022-09-28T23:08:05.438Z,42.70
2022-09-28T23:13:08.993Z,43.40
2022-09-28T23:18:13.565Z,42.80
2022-09-28T23:23:17.086Z,42.90
2022-09-28T23:28:21.453Z,43.00
2022-09-28T23:33:26.796Z,43.20
2022-09-28T23:38:30.428Z,43.30
2022-09-28T23:43:34.130Z,43.30
2022-09-28T23:48:39.025Z,43.30
2022-09-28T23:53:43.486Z,43.30
2022-09-28T23:58:46.835Z,43.20
